createdAt,value
2023-05-05T00:00:19.177Z,95142.00
2023-05-05T00:01:19.187Z,95146.00
2023-05-05T00:02:19.245Z,95146.00
2023-05-05T00:03:19.282Z,95142.00
2023-05-05T00:04:19.287Z,95144.00
2023-05-05T00:05:19.243Z,95142.00
2023-05-05T00:06:19.248Z,95142.00
2023-05-05T00:07:19.255Z,95144.00
2023-05-05T00:08:19.289Z,95148.00
2023-05-05T00:09:19.333Z,95148.00
2023-05-05T00:10:19.391Z,95148.00
2023-05-05T00:11:19.349Z,95150.00
2023-05-05T00:12:19.402Z,95146.00
2023-05-05T00:13:19.418Z,95158.00
2023-05-05T00:14:19.421Z,95148.00
2023-05-05T00:15:19.473Z,95148.00
2023-05-05T00:16:19.543Z,95148.00
2023-05-05T00:17:19.555Z,95148.00
2023-05-05T00:18:19.494Z,95146.00
2023-05-05T00:19:19.546Z,95148.00
2023-05-05T00:20:19.567Z,95148.00
2023-05-05T00:21:19.688Z,95150.00
2023-05-05T00:22:19.599Z,95150.00
2023-05-05T00:23:19.639Z,95150.00
2023-05-05T00:24:19.642Z,95150.00
2023-05-05T00:25:19.655Z,95158.00
2023-05-05T00:26:19.710Z,95150.00
2023-05-05T00:27:19.697Z,95146.00
2023-05-05T00:28:19.728Z,95146.00
2023-05-05T00:29:19.781Z,95150.00
2023-05-05T00:30:19.792Z,95146.00
2023-05-05T00:31:19.872Z,95148.00
2023-05-05T00:32:19.861Z,95144.00
2023-05-05T00:33:19.863Z,95146.00
2023-05-05T00:34:19.884Z,95144.00
2023-05-05T00:35:19.937Z,95144.00
2023-05-05T00:36:19.905Z,95150.00
2023-05-05T00:37:19.924Z,95150.00
2023-05-05T00:38:19.960Z,95150.00
2023-05-05T00:39:20.012Z,95158.00
2023-05-05T00:40:20.026Z,95150.00
2023-05-05T00:41:20.025Z,95160.00
2023-05-05T00:42:20.040Z,95158.00
2023-05-05T00:43:20.058Z,95158.00
2023-05-05T00:44:20.144Z,95158.00
2023-05-05T00:45:20.170Z,95158.00
2023-05-05T00:46:20.211Z,95158.00
2023-05-05T00:47:20.136Z,95148.00
2023-05-05T00:48:20.189Z,95150.00
2023-05-05T00:49:20.206Z,95158.00
2023-05-05T00:50:20.235Z,95148.00
2023-05-05T00:51:20.253Z,95148.00
2023-05-05T00:52:20.253Z,95150.00
2023-05-05T00:53:20.312Z,95150.00
2023-05-05T00:54:20.317Z,95158.00
2023-05-05T00:55:20.339Z,95150.00
2023-05-05T00:56:20.325Z,95150.00
2023-05-05T00:57:20.383Z,95160.00
2023-05-05T00:58:20.369Z,95160.00
2023-05-05T00:59:20.436Z,95158.00
2023-05-05T01:00:20.470Z,95162.00
2023-05-05T01:01:20.501Z,95158.00
2023-05-05T01:02:20.513Z,95158.00
2023-05-05T01:03:20.608Z,95158.00
2023-05-05T01:04:20.546Z,95146.00
2023-05-05T01:05:20.594Z,95146.00
2023-05-05T01:06:20.604Z,95146.00
2023-05-05T01:07:20.601Z,95144.00
2023-05-05T01:08:20.658Z,95146.00
2023-05-05T01:09:20.645Z,95144.00
2023-05-05T01:10:21.078Z,95144.00
2023-05-05T01:11:20.799Z,95142.00
2023-05-05T01:12:20.742Z,95144.00
2023-05-05T01:13:20.775Z,95144.00
2023-05-05T01:14:20.804Z,95142.00
2023-05-05T01:15:20.821Z,95140.00
2023-05-05T01:16:20.902Z,95140.00
2023-05-05T01:17:20.886Z,95142.00
2023-05-05T01:18:20.891Z,95142.00
2023-05-05T01:19:20.933Z,95140.00
2023-05-05T01:20:20.925Z,95140.00
2023-05-05T01:21:21.493Z,95140.00
2023-05-05T01:22:21.032Z,95144.00
2023-05-05T01:23:21.021Z,95142.00
2023-05-05T01:24:21.069Z,95144.00
2023-05-05T01:25:21.087Z,95142.00
2023-05-05T01:26:21.146Z,95142.00
2023-05-05T01:27:21.166Z,95142.00
2023-05-05T01:28:21.169Z,95144.00
2023-05-05T01:29:21.159Z,95146.00
2023-05-05T01:30:21.231Z,95146.00
2023-05-05T01:31:21.311Z,95150.00
2023-05-05T01:32:21.313Z,95150.00
2023-05-05T01:33:21.322Z,95148.00
2023-05-05T01:34:21.357Z,95158.00
2023-05-05T01:35:21.362Z,95158.00
2023-05-05T01:36:21.364Z,95148.00
2023-05-05T01:37:21.399Z,95158.00
2023-05-05T01:38:21.569Z,95148.00
2023-05-05T01:39:21.461Z,95150.00
2023-05-05T01:40:21.494Z,95158.00
2023-05-05T01:41:21.545Z,95158.00
2023-05-05T01:42:21.535Z,95158.00
2023-05-05T01:43:21.572Z,95158.00
2023-05-05T01:44:21.625Z,95158.00
2023-05-05T01:45:21.603Z,95160.00
2023-05-05T01:46:21.680Z,95158.00
2023-05-05T01:47:21.703Z,95160.00
2023-05-05T01:48:21.728Z,95158.00
2023-05-05T01:49:21.728Z,95158.00
2023-05-05T01:50:21.743Z,95164.00
2023-05-05T01:51:21.768Z,95164.00
2023-05-05T01:52:21.808Z,95164.00
2023-05-05T01:53:21.891Z,95164.00
2023-05-05T01:54:21.895Z,95160.00
2023-05-05T01:55:21.925Z,95164.00
2023-05-05T01:56:21.959Z,95166.00
2023-05-05T01:57:21.982Z,95166.00
2023-05-05T01:58:21.980Z,95166.00
2023-05-05T01:59:22.024Z,95164.00
2023-05-05T02:00:22.098Z,95166.00
2023-05-05T02:01:22.113Z,95168.00
2023-05-05T02:02:22.185Z,95166.00
2023-05-05T02:03:22.301Z,95166.00
2023-05-05T02:04:22.207Z,95166.00
2023-05-05T02:05:22.242Z,95164.00
2023-05-05T02:06:22.260Z,95164.00
2023-05-05T02:07:22.292Z,95160.00
2023-05-05T02:08:22.276Z,95162.00
2023-05-05T02:09:22.336Z,95162.00
2023-05-05T02:10:22.397Z,95166.00
2023-05-05T02:11:22.377Z,95168.00
2023-05-05T02:12:22.400Z,95170.00
2023-05-05T02:13:22.502Z,95168.00
2023-05-05T02:14:22.503Z,95170.00
2023-05-05T02:15:22.568Z,95170.00
2023-05-05T02:16:22.593Z,95172.00
2023-05-05T02:17:22.686Z,95172.00
2023-05-05T02:18:22.599Z,95172.00
2023-05-05T02:19:22.639Z,95173.00
2023-05-05T02:20:22.680Z,95172.00
2023-05-05T02:21:22.769Z,95172.00
2023-05-05T02:22:22.750Z,95168.00
2023-05-05T02:23:22.736Z,95168.00
2023-05-05T02:24:22.829Z,95175.00
2023-05-05T02:25:22.835Z,95170.00
2023-05-05T02:26:22.864Z,95170.00
2023-05-05T02:27:22.998Z,95170.00
2023-05-05T02:28:22.918Z,95170.00
2023-05-05T02:29:22.968Z,95170.00
2023-05-05T02:30:22.962Z,95172.00
2023-05-05T02:31:23.091Z,95173.00
2023-05-05T02:32:23.103Z,95173.00
2023-05-05T02:33:23.081Z,95173.00
2023-05-05T02:34:23.093Z,95175.00
2023-05-05T02:35:23.116Z,95173.00
2023-05-05T02:36:23.144Z,95172.00
2023-05-05T02:37:23.226Z,95173.00
2023-05-05T02:38:23.206Z,95172.00
2023-05-05T02:39:23.287Z,95173.00
2023-05-05T02:40:23.270Z,95177.00
2023-05-05T02:41:23.315Z,95175.00
2023-05-05T02:42:23.358Z,95179.00
2023-05-05T02:43:23.396Z,95181.00
2023-05-05T02:44:23.421Z,95179.00
2023-05-05T02:45:23.464Z,95179.00
2023-05-05T02:46:23.487Z,95175.00
2023-05-05T02:47:23.535Z,95177.00
2023-05-05T02:48:23.516Z,95177.00
2023-05-05T02:49:23.576Z,95177.00
2023-05-05T02:50:23.565Z,95181.00
2023-05-05T02:51:23.640Z,95179.00
2023-05-05T02:52:23.643Z,95177.00
2023-05-05T02:53:23.644Z,95179.00
2023-05-05T02:54:23.700Z,95175.00
2023-05-05T02:55:23.771Z,95181.00
2023-05-05T02:56:23.778Z,95179.00
2023-05-05T02:57:23.813Z,95179.00
2023-05-05T02:58:23.825Z,95181.00
2023-05-05T02:59:23.888Z,95179.00
2023-05-05T03:00:23.907Z,95181.00
2023-05-05T03:01:23.929Z,95177.00
2023-05-05T03:02:23.973Z,95179.00
2023-05-05T03:03:24.101Z,95179.00
2023-05-05T03:04:24.036Z,95183.00
2023-05-05T03:05:24.089Z,95181.00
2023-05-05T03:06:24.155Z,95183.00
2023-05-05T03:07:24.224Z,95185.00
2023-05-05T03:08:24.153Z,95185.00
2023-05-05T03:09:24.222Z,95185.00
2023-05-05T03:10:24.242Z,95187.00
2023-05-05T03:11:24.271Z,95187.00
2023-05-05T03:12:24.296Z,95183.00
2023-05-05T03:13:24.317Z,95183.00
2023-05-05T03:14:24.448Z,95183.00
2023-05-05T03:15:24.410Z,95185.00
2023-05-05T03:16:24.492Z,95181.00
2023-05-05T03:17:24.597Z,95181.00
2023-05-05T03:18:24.548Z,95183.00
2023-05-05T03:19:24.671Z,95181.00
2023-05-05T03:20:24.591Z,95179.00
2023-05-05T03:21:24.763Z,95179.00
2023-05-05T03:22:24.698Z,95181.00
2023-05-05T03:23:24.705Z,95179.00
2023-05-05T03:24:24.724Z,95181.00
2023-05-05T03:25:24.782Z,95179.00
2023-05-05T03:26:24.787Z,95179.00
2023-05-05T03:27:24.839Z,95179.00
2023-05-05T03:28:24.937Z,95179.00
2023-05-05T03:29:24.912Z,95179.00
2023-05-05T03:30:24.971Z,95181.00
2023-05-05T03:31:25.068Z,95181.00
2023-05-05T03:32:25.099Z,95179.00
2023-05-05T03:33:25.102Z,95175.00
2023-05-05T03:34:25.157Z,95181.00
2023-05-05T03:35:25.218Z,95179.00
2023-05-05T03:36:27.205Z,95185.00
2023-05-05T03:37:25.237Z,95185.00
2023-05-05T03:38:25.229Z,95185.00
2023-05-05T03:39:25.229Z,95185.00
2023-05-05T03:40:36.200Z,95183.00
2023-05-05T03:41:26.227Z,95185.00
2023-05-05T03:42:25.206Z,95183.00
2023-05-05T03:43:25.215Z,95185.00
2023-05-05T03:44:25.230Z,95183.00
2023-05-05T03:45:25.204Z,95183.00
2023-05-05T03:46:25.171Z,95183.00
2023-05-05T03:47:25.162Z,95183.00
2023-05-05T03:48:25.173Z,95185.00
2023-05-05T03:49:25.145Z,95185.00
2023-05-05T03:50:25.168Z,95187.00
2023-05-05T03:51:25.129Z,95187.00
2023-05-05T03:52:25.116Z,95183.00
2023-05-05T03:53:25.134Z,95181.00
2023-05-05T03:54:25.119Z,95181.00
2023-05-05T03:55:25.173Z,95181.00
2023-05-05T03:56:25.159Z,95181.00
2023-05-05T03:57:25.196Z,95181.00
2023-05-05T03:58:25.209Z,95181.00
2023-05-05T03:59:25.266Z,95181.00
2023-05-05T04:00:25.290Z,95179.00
2023-05-05T04:01:25.372Z,95177.00
2023-05-05T04:02:25.505Z,95177.00
2023-05-05T04:03:25.572Z,95177.00
2023-05-05T04:04:25.506Z,95179.00
2023-05-05T04:05:25.488Z,95179.00
2023-05-05T04:06:25.537Z,95177.00
2023-05-05T04:07:25.584Z,95181.00
2023-05-05T04:08:25.621Z,95181.00
2023-05-05T04:09:25.631Z,95181.00
2023-05-05T04:10:25.693Z,95181.00
2023-05-05T04:11:25.741Z,95181.00
2023-05-05T04:12:25.773Z,95183.00
2023-05-05T04:13:25.878Z,95183.00
2023-05-05T04:14:25.884Z,95183.00
2023-05-05T04:15:25.898Z,95183.00
2023-05-05T04:16:26.038Z,95185.00
2023-05-05T04:17:26.044Z,95185.00
2023-05-05T04:18:26.098Z,95185.00
2023-05-05T04:19:26.132Z,95185.00
2023-05-05T04:20:26.201Z,95183.00
2023-05-05T04:21:26.238Z,95185.00
2023-05-05T04:22:26.323Z,95185.00
2023-05-05T04:23:26.334Z,95185.00
2023-05-05T04:24:26.367Z,95187.00
2023-05-05T04:25:26.420Z,95187.00
2023-05-05T04:26:26.506Z,95185.00
2023-05-05T04:27:26.538Z,95187.00
2023-05-05T04:28:26.592Z,95187.00
2023-05-05T04:29:26.647Z,95187.00
2023-05-05T04:30:26.656Z,95183.00
2023-05-05T04:31:26.774Z,95183.00
2023-05-05T04:32:26.859Z,95185.00
2023-05-05T04:33:26.840Z,95187.00
2023-05-05T04:34:26.889Z,95189.00
2023-05-05T04:35:26.932Z,95189.00
2023-05-05T04:36:26.979Z,95193.00
2023-05-05T04:37:27.032Z,95189.00
2023-05-05T04:38:27.119Z,95191.00
2023-05-05T04:39:27.092Z,95193.00
2023-05-05T04:40:27.167Z,95197.00
2023-05-05T04:41:28.904Z,95199.00
2023-05-05T04:42:27.190Z,95199.00
2023-05-05T04:43:27.184Z,95201.00
2023-05-05T04:44:27.136Z,95199.00
2023-05-05T04:45:27.140Z,95201.00
2023-05-05T04:46:27.182Z,95201.00
2023-05-05T04:47:27.245Z,95203.00
2023-05-05T04:48:27.125Z,95203.00
2023-05-05T04:49:27.117Z,95201.00
2023-05-05T04:50:27.102Z,95201.00
2023-05-05T04:51:27.103Z,95201.00
2023-05-05T04:52:27.120Z,95199.00
2023-05-05T04:53:27.102Z,95197.00
2023-05-05T04:54:27.166Z,95199.00
2023-05-05T04:55:27.075Z,95197.00
2023-05-05T04:56:27.058Z,95197.00
2023-05-05T04:57:27.069Z,95203.00
2023-05-05T04:58:27.080Z,95203.00
2023-05-05T04:59:27.051Z,95203.00
2023-05-05T05:00:27.027Z,95203.00
2023-05-05T05:01:27.108Z,95207.00
2023-05-05T05:02:27.064Z,95205.00
2023-05-05T05:03:27.153Z,95205.00
2023-05-05T05:04:26.985Z,95207.00
2023-05-05T05:05:27.002Z,95207.00
2023-05-05T05:06:27.037Z,95209.00
2023-05-05T05:07:26.992Z,95211.00
2023-05-05T05:08:27.012Z,95212.00
2023-05-05T05:09:26.995Z,95211.00
2023-05-05T05:10:26.960Z,95209.00
2023-05-05T05:11:26.974Z,95211.00
2023-05-05T05:12:26.947Z,95211.00
2023-05-05T05:13:27.006Z,95211.00
2023-05-05T05:14:26.985Z,95212.00
2023-05-05T05:15:26.936Z,95218.00
2023-05-05T05:16:27.060Z,95216.00
2023-05-05T05:17:27.013Z,95214.00
2023-05-05T05:18:26.959Z,95214.00
2023-05-05T05:19:26.911Z,95212.00
2023-05-05T05:20:26.892Z,95211.00
2023-05-05T05:21:26.930Z,95211.00
2023-05-05T05:22:26.893Z,95211.00
2023-05-05T05:23:26.925Z,95209.00
2023-05-05T05:24:26.869Z,95211.00
2023-05-05T05:25:26.883Z,95211.00
2023-05-05T05:26:26.861Z,95209.00
2023-05-05T05:27:26.879Z,95212.00
2023-05-05T05:28:26.877Z,95209.00
2023-05-05T05:29:26.847Z,95211.00
2023-05-05T05:30:26.855Z,95211.00
2023-05-05T05:31:26.847Z,95211.00
2023-05-05T05:32:26.940Z,95209.00
2023-05-05T05:33:26.991Z,95209.00
2023-05-05T05:34:26.834Z,95209.00
2023-05-05T05:35:26.838Z,95211.00
2023-05-05T05:36:27.034Z,95212.00
2023-05-05T05:37:26.905Z,95211.00
2023-05-05T05:38:26.815Z,95214.00
2023-05-05T05:39:26.812Z,95211.00
2023-05-05T05:40:26.856Z,95212.00
2023-05-05T05:41:26.768Z,95212.00
2023-05-05T05:42:27.884Z,95216.00
2023-05-05T05:43:26.775Z,95214.00
2023-05-05T05:44:27.037Z,95216.00
2023-05-05T05:45:26.740Z,95220.00
2023-05-05T05:46:26.776Z,95216.00
2023-05-05T05:47:26.769Z,95220.00
2023-05-05T05:48:26.804Z,95218.00
2023-05-05T05:49:26.714Z,95218.00
2023-05-05T05:50:26.790Z,95216.00
2023-05-05T05:51:26.728Z,95218.00
2023-05-05T05:52:26.696Z,95214.00
2023-05-05T05:53:26.699Z,95220.00
2023-05-05T05:54:27.070Z,95218.00
2023-05-05T05:55:26.692Z,95218.00
2023-05-05T05:56:26.736Z,95216.00
2023-05-05T05:57:27.037Z,95218.00
2023-05-05T05:58:26.667Z,95218.00
2023-05-05T05:59:26.735Z,95218.00
2023-05-05T06:00:26.758Z,95218.00
2023-05-05T06:01:26.632Z,95218.00
2023-05-05T06:02:26.847Z,95218.00
2023-05-05T06:03:26.985Z,95218.00
2023-05-05T06:04:26.711Z,95216.00
2023-05-05T06:05:26.622Z,95220.00
2023-05-05T06:06:26.689Z,95218.00
2023-05-05T06:07:26.735Z,95218.00
2023-05-05T06:08:27.063Z,95218.00
2023-05-05T06:09:26.849Z,95224.00
2023-05-05T06:10:28.301Z,95224.00
2023-05-05T06:11:26.956Z,95220.00
2023-05-05T06:12:26.992Z,95220.00
2023-05-05T06:13:27.588Z,95222.00
2023-05-05T06:14:27.114Z,95224.00
2023-05-05T06:15:27.154Z,95224.00
2023-05-05T06:16:27.231Z,95224.00
2023-05-05T06:17:27.241Z,95222.00
2023-05-05T06:18:27.382Z,95220.00
2023-05-05T06:19:27.346Z,95218.00
2023-05-05T06:20:27.391Z,95220.00
2023-05-05T06:21:27.519Z,95220.00
2023-05-05T06:22:27.457Z,95220.00
2023-05-05T06:23:27.509Z,95222.00
2023-05-05T06:24:27.576Z,95220.00
2023-05-05T06:25:27.580Z,95216.00
2023-05-05T06:26:27.607Z,95214.00
2023-05-05T06:27:27.643Z,95212.00
2023-05-05T06:28:28.030Z,95216.00
2023-05-05T06:29:27.726Z,95212.00
2023-05-05T06:30:27.737Z,95212.00
2023-05-05T06:31:27.752Z,95211.00
2023-05-05T06:32:27.779Z,95214.00
2023-05-05T06:33:27.722Z,95212.00
2023-05-05T06:34:27.743Z,95211.00
2023-05-05T06:35:27.851Z,95209.00
2023-05-05T06:36:27.758Z,95203.00
2023-05-05T06:37:27.767Z,95201.00
2023-05-05T06:38:27.752Z,95201.00
2023-05-05T06:39:27.728Z,95197.00
2023-05-05T06:40:28.098Z,95197.00
2023-05-05T06:41:27.825Z,95195.00
2023-05-05T06:42:27.881Z,95195.00
2023-05-05T06:43:27.888Z,95193.00
2023-05-05T06:44:27.972Z,95193.00
2023-05-05T06:45:28.009Z,95193.00
2023-05-05T06:46:28.103Z,95189.00
2023-05-05T06:47:28.147Z,95191.00
2023-05-05T06:48:28.226Z,95191.00
2023-05-05T06:49:28.253Z,95191.00
2023-05-05T06:50:28.286Z,95187.00
2023-05-05T06:51:28.398Z,95183.00
2023-05-05T06:52:28.588Z,95185.00
2023-05-05T06:53:28.469Z,95187.00
2023-05-05T06:54:28.550Z,95187.00
2023-05-05T06:55:29.072Z,95185.00
2023-05-05T06:56:29.135Z,95185.00
2023-05-05T06:57:28.724Z,95183.00
2023-05-05T06:58:28.777Z,95185.00
2023-05-05T06:59:28.907Z,95187.00
2023-05-05T07:00:28.854Z,95187.00
2023-05-05T07:01:28.927Z,95183.00
2023-05-05T07:02:28.994Z,95185.00
2023-05-05T07:03:29.018Z,95187.00
2023-05-05T07:04:29.565Z,95185.00
2023-05-05T07:05:29.142Z,95185.00
2023-05-05T07:06:29.184Z,95181.00
2023-05-05T07:07:29.198Z,95181.00
2023-05-05T07:08:29.593Z,95181.00
2023-05-05T07:09:29.299Z,95179.00
2023-05-05T07:10:29.416Z,95181.00
2023-05-05T07:11:29.382Z,95177.00
2023-05-05T07:12:29.500Z,95179.00
2023-05-05T07:13:29.838Z,95177.00
2023-05-05T07:14:29.471Z,95177.00
2023-05-05T07:15:29.887Z,95177.00
2023-05-05T07:16:29.543Z,95175.00
2023-05-05T07:17:29.623Z,95172.00
2023-05-05T07:18:29.596Z,95175.00
2023-05-05T07:19:29.650Z,95175.00
2023-05-05T07:20:29.653Z,95172.00
2023-05-05T07:21:29.680Z,95168.00
2023-05-05T07:22:29.662Z,95168.00
2023-05-05T07:23:29.686Z,95164.00
2023-05-05T07:24:29.731Z,95166.00
2023-05-05T07:25:29.680Z,95164.00
2023-05-05T07:26:29.689Z,95162.00
2023-05-05T07:27:29.725Z,95162.00
2023-05-05T07:28:30.141Z,95162.00
2023-05-05T07:29:29.752Z,95160.00
2023-05-05T07:30:29.760Z,95158.00
2023-05-05T07:31:29.785Z,95160.00
2023-05-05T07:32:29.876Z,95160.00
2023-05-05T07:33:29.762Z,95150.00
2023-05-05T07:34:29.775Z,95150.00
2023-05-05T07:35:30.102Z,95148.00
2023-05-05T07:36:29.856Z,95175.00
2023-05-05T07:37:29.853Z,95148.00
2023-05-05T07:38:30.189Z,95148.00
2023-05-05T07:39:30.122Z,95146.00
2023-05-05T07:40:30.218Z,95144.00
2023-05-05T07:41:29.918Z,95138.00
2023-05-05T07:42:29.965Z,95138.00
2023-05-05T07:43:29.933Z,95140.00
2023-05-05T07:44:30.151Z,95138.00
2023-05-05T07:45:30.086Z,95134.00
2023-05-05T07:46:29.966Z,95132.00
2023-05-05T07:47:30.239Z,95134.00
2023-05-05T07:48:29.968Z,95128.00
2023-05-05T07:49:30.073Z,95126.00
2023-05-05T07:50:30.095Z,95124.00
2023-05-05T07:51:30.206Z,95126.00
2023-05-05T07:52:44.307Z,95122.00
2023-05-05T07:53:31.124Z,95120.00
2023-05-05T07:54:30.106Z,95120.00
2023-05-05T07:55:30.034Z,95122.00
2023-05-05T07:56:30.013Z,95118.00
2023-05-05T07:57:30.026Z,95116.00
2023-05-05T07:58:30.006Z,95118.00
2023-05-05T07:59:29.998Z,95118.00
2023-05-05T08:00:30.185Z,95116.00
2023-05-05T08:01:30.053Z,95116.00
2023-05-05T08:02:30.109Z,95114.00
2023-05-05T08:03:30.165Z,95114.00
2023-05-05T08:04:30.012Z,95116.00
2023-05-05T08:05:29.981Z,95112.00
2023-05-05T08:06:29.997Z,95114.00
2023-05-05T08:07:29.923Z,95114.00
2023-05-05T08:08:29.957Z,95114.00
2023-05-05T08:09:29.969Z,95112.00
2023-05-05T08:10:29.953Z,95112.00
2023-05-05T08:11:29.912Z,95112.00
2023-05-05T08:12:29.931Z,95116.00
2023-05-05T08:13:29.917Z,95114.00
2023-05-05T08:14:29.907Z,95111.00
2023-05-05T08:15:29.862Z,95109.00
2023-05-05T08:16:30.129Z,95103.00
2023-05-05T08:17:29.959Z,95107.00
2023-05-05T08:18:30.552Z,95107.00
2023-05-05T08:19:29.910Z,95107.00
2023-05-05T08:20:30.110Z,95105.00
2023-05-05T08:21:29.889Z,95103.00
2023-05-05T08:22:29.955Z,95105.00
2023-05-05T08:23:29.931Z,95103.00
2023-05-05T08:24:30.008Z,95099.00
2023-05-05T08:25:30.095Z,95097.00
2023-05-05T08:26:30.091Z,95095.00
2023-05-05T08:27:30.100Z,95097.00
2023-05-05T08:28:30.226Z,95097.00
2023-05-05T08:29:30.627Z,95093.00
2023-05-05T08:30:30.118Z,95093.00
2023-05-05T08:31:30.194Z,95091.00
2023-05-05T08:32:30.333Z,95089.00
2023-05-05T08:33:30.223Z,95089.00
2023-05-05T08:34:30.284Z,95083.00
2023-05-05T08:35:30.343Z,95081.00
2023-05-05T08:36:30.394Z,95079.00
2023-05-05T08:37:30.605Z,95077.00
2023-05-05T08:38:30.487Z,95077.00
2023-05-05T08:39:30.596Z,95073.00
2023-05-05T08:40:30.629Z,95073.00
2023-05-05T08:41:30.681Z,95067.00
2023-05-05T08:42:37.977Z,95067.00
2023-05-05T08:43:32.114Z,95067.00
2023-05-05T08:44:30.714Z,95064.00
2023-05-05T08:45:30.790Z,95065.00
2023-05-05T08:46:31.188Z,95064.00
2023-05-05T08:47:30.778Z,95062.00
2023-05-05T08:48:30.793Z,95064.00
2023-05-05T08:49:30.698Z,95064.00
2023-05-05T08:50:30.709Z,95060.00
2023-05-05T08:51:30.703Z,95062.00
2023-05-05T08:52:30.827Z,95058.00
2023-05-05T08:53:30.888Z,95058.00
2023-05-05T08:54:31.142Z,95056.00
2023-05-05T08:55:30.884Z,95054.00
2023-05-05T08:56:30.878Z,95052.00
2023-05-05T08:57:30.918Z,95052.00
2023-05-05T08:58:30.926Z,95050.00
2023-05-05T08:59:30.979Z,95050.00
2023-05-05T09:00:31.029Z,95050.00
2023-05-05T09:01:31.097Z,95048.00
2023-05-05T09:02:31.086Z,95046.00
2023-05-05T09:03:31.075Z,95046.00
2023-05-05T09:04:31.281Z,95044.00
2023-05-05T09:05:31.107Z,95044.00
2023-05-05T09:06:31.066Z,95044.00
2023-05-05T09:07:31.142Z,95042.00
2023-05-05T09:08:31.129Z,95042.00
2023-05-05T09:09:31.138Z,95034.00
2023-05-05T09:10:31.158Z,95034.00
2023-05-05T09:11:31.185Z,95036.00
2023-05-05T09:12:31.717Z,95032.00
2023-05-05T09:13:31.623Z,95032.00
2023-05-05T09:14:31.229Z,95030.00
2023-05-05T09:15:31.280Z,95030.00
2023-05-05T09:16:31.342Z,95026.00
2023-05-05T09:17:31.368Z,95026.00
2023-05-05T09:18:31.657Z,95022.00
2023-05-05T09:19:31.620Z,95020.00
2023-05-05T09:20:31.695Z,95018.00
2023-05-05T09:21:31.515Z,95020.00
2023-05-05T09:22:31.560Z,95018.00
2023-05-05T09:23:31.685Z,95017.00
2023-05-05T09:24:31.653Z,95017.00
2023-05-05T09:25:31.716Z,95015.00
2023-05-05T09:26:31.755Z,95015.00
2023-05-05T09:27:32.108Z,95011.00
2023-05-05T09:28:32.118Z,95009.00
2023-05-05T09:29:31.936Z,95007.00
2023-05-05T09:30:32.059Z,95005.00
2023-05-05T09:31:32.094Z,95005.00
2023-05-05T09:32:32.157Z,95003.00
2023-05-05T09:33:32.178Z,95001.00
2023-05-05T09:34:32.149Z,95003.00
2023-05-05T09:35:32.237Z,95003.00
2023-05-05T09:36:33.181Z,95001.00
2023-05-05T09:37:32.304Z,94997.00
2023-05-05T09:38:32.658Z,94995.00
2023-05-05T09:39:32.314Z,94997.00
2023-05-05T09:40:32.344Z,94991.00
2023-05-05T09:41:32.405Z,94991.00
2023-05-05T09:42:32.410Z,94991.00
2023-05-05T09:43:32.654Z,94987.00
2023-05-05T09:44:32.425Z,94985.00
2023-05-05T09:45:32.457Z,94985.00
2023-05-05T09:46:32.542Z,94987.00
2023-05-05T09:47:32.955Z,94983.00
2023-05-05T09:48:32.694Z,94983.00
2023-05-05T09:49:32.531Z,94981.00
2023-05-05T09:50:32.664Z,94979.00
2023-05-05T09:51:32.586Z,94981.00
2023-05-05T09:52:32.691Z,94977.00
2023-05-05T09:53:33.141Z,94979.00
2023-05-05T09:54:32.709Z,94975.00
2023-05-05T09:55:32.744Z,94973.00
2023-05-05T09:56:32.701Z,94975.00
2023-05-05T09:57:32.787Z,94975.00
2023-05-05T09:58:32.806Z,94973.00
2023-05-05T09:59:32.853Z,94975.00
2023-05-05T10:00:32.892Z,94977.00
2023-05-05T10:01:32.956Z,94971.00
2023-05-05T10:02:33.087Z,94973.00
2023-05-05T10:03:33.038Z,94971.00
2023-05-05T10:04:33.163Z,94968.00
2023-05-05T10:05:33.149Z,94968.00
2023-05-05T10:06:33.209Z,94968.00
2023-05-05T10:07:33.263Z,94964.00
2023-05-05T10:08:33.388Z,94966.00
2023-05-05T10:09:33.337Z,94964.00
2023-05-05T10:10:33.405Z,94964.00
2023-05-05T10:11:33.457Z,94962.00
2023-05-05T10:12:33.536Z,94964.00
2023-05-05T10:13:33.557Z,94958.00
2023-05-05T10:14:33.629Z,94960.00
2023-05-05T10:15:33.808Z,94958.00
2023-05-05T10:16:34.205Z,94954.00
2023-05-05T10:17:33.894Z,94948.00
2023-05-05T10:18:33.920Z,94944.00
2023-05-05T10:19:33.955Z,94942.00
2023-05-05T10:20:34.020Z,94938.00
2023-05-05T10:21:34.090Z,94938.00
2023-05-05T10:22:34.135Z,94938.00
2023-05-05T10:23:34.123Z,94936.00
2023-05-05T10:24:34.278Z,94932.00
2023-05-05T10:25:34.266Z,94932.00
2023-05-05T10:26:34.343Z,94932.00
2023-05-05T10:27:34.376Z,94932.00
2023-05-05T10:28:34.452Z,94932.00
2023-05-05T10:29:34.505Z,94930.00
2023-05-05T10:30:34.499Z,94932.00
2023-05-05T10:31:34.619Z,94930.00
2023-05-05T10:33:35.752Z,94924.00
2023-05-05T10:34:34.657Z,94921.00
2023-05-05T10:35:34.581Z,94923.00
2023-05-05T10:36:34.595Z,94919.00
2023-05-05T10:37:34.672Z,94917.00
2023-05-05T10:38:34.548Z,94911.00
2023-05-05T10:39:34.558Z,94915.00
2023-05-05T10:40:34.538Z,94911.00
2023-05-05T10:41:34.655Z,94907.00
2023-05-05T10:42:34.538Z,94905.00
2023-05-05T10:43:34.501Z,94905.00
2023-05-05T10:44:34.497Z,94905.00
2023-05-05T10:45:34.654Z,94901.00
2023-05-05T10:46:34.552Z,94893.00
2023-05-05T10:47:34.538Z,94893.00
2023-05-05T10:48:34.506Z,94889.00
2023-05-05T10:49:34.488Z,94891.00
2023-05-05T10:50:34.489Z,94891.00
2023-05-05T10:51:40.354Z,94889.00
2023-05-05T10:52:35.672Z,94885.00
2023-05-05T10:53:34.465Z,94887.00
2023-05-05T10:54:35.766Z,94883.00
2023-05-05T10:55:34.675Z,94879.00
2023-05-05T10:56:34.453Z,94878.00
2023-05-05T10:57:34.690Z,94874.00
2023-05-05T10:58:40.804Z,94872.00
2023-05-05T10:59:35.425Z,94872.00
2023-05-05T11:00:34.394Z,94872.00
2023-05-05T11:01:34.627Z,94872.00
2023-05-05T11:02:34.714Z,94872.00
2023-05-05T11:03:34.424Z,94879.00
2023-05-05T11:04:34.366Z,94868.00
2023-05-05T11:05:34.391Z,94864.00
2023-05-05T11:06:34.389Z,94858.00
2023-05-05T11:07:34.705Z,94862.00
2023-05-05T11:08:34.350Z,94862.00
2023-05-05T11:09:34.327Z,94858.00
2023-05-05T11:10:34.476Z,94854.00
2023-05-05T11:11:34.318Z,94852.00
2023-05-05T11:12:36.067Z,94848.00
2023-05-05T11:13:34.310Z,94848.00
2023-05-05T11:14:34.669Z,94842.00
2023-05-05T11:15:34.320Z,94840.00
2023-05-05T11:16:34.358Z,94836.00
2023-05-05T11:17:34.345Z,94834.00
2023-05-05T11:18:34.263Z,94834.00
2023-05-05T11:19:34.715Z,94834.00
2023-05-05T11:20:34.249Z,94828.00
2023-05-05T11:21:34.687Z,94828.00
2023-05-05T11:22:34.230Z,94823.00
2023-05-05T11:23:34.251Z,94824.00
2023-05-05T11:24:34.276Z,94824.00
2023-05-05T11:25:34.239Z,94817.00
2023-05-05T11:26:34.221Z,94819.00
2023-05-05T11:27:34.253Z,94817.00
2023-05-05T11:28:34.280Z,94819.00
2023-05-05T11:29:34.245Z,94819.00
2023-05-05T11:30:34.218Z,94815.00
2023-05-05T11:31:34.247Z,94811.00
2023-05-05T11:32:34.320Z,94809.00
2023-05-05T11:33:34.230Z,94811.00
2023-05-05T11:34:34.160Z,94807.00
2023-05-05T11:35:34.164Z,94809.00
2023-05-05T11:36:34.204Z,94807.00
2023-05-05T11:37:34.139Z,94803.00
2023-05-05T11:38:34.207Z,94803.00
2023-05-05T11:39:34.153Z,94801.00
2023-05-05T11:40:34.165Z,94801.00
2023-05-05T11:41:34.108Z,94799.00
2023-05-05T11:42:34.114Z,94795.00
2023-05-05T11:43:34.083Z,94793.00
2023-05-05T11:44:34.173Z,94791.00
2023-05-05T11:45:34.139Z,94787.00